Weather at Nikšić Airfield

Public forecast

Using degrees Celsius for public forecast. Weather courtesy of forecast.io.

Closest aviation weather report (METAR) to Nikšić Airfield

Closest report is Tivat Airport, 23.7 nm (43.9 km) SSW.

2023/02/04 06:00 (retrieved 11 minutes ago)

LYTV 040600Z VRB01KT 9999 FEW060 04/01 Q1018 NOSIG

Closest aviation forecast (TAF) to Nikšić Airfield

Closest forecast is Tivat Airport, 23.7 nm (43.9 km) SSW.

2023/02/04 06:21 (retrieved 0 seconds ago)

TAF LYTV 040500Z 0406/0506 03005KT 9999 FEW040 BKN080 TX12/0413Z TN01/0506Z BECMG 0410/0412 35016KT TEMPO 0412/0418 02022G38KT TEMPO 0418/0506 03030G50KT